createdAt,value
2022-12-24T00:00:38.481Z,2.13
2022-12-24T00:03:05.293Z,1.40
2022-12-24T00:05:32.054Z,1.70
2022-12-24T00:07:58.662Z,1.60
2022-12-24T00:10:25.303Z,1.40
2022-12-24T00:12:51.945Z,1.60
2022-12-24T00:15:18.677Z,1.73
2022-12-24T00:17:45.320Z,2.17
2022-12-24T00:20:12.175Z,1.73
2022-12-24T00:22:38.774Z,1.73
2022-12-24T00:25:05.976Z,1.47
2022-12-24T00:27:32.612Z,1.40
2022-12-24T00:29:59.240Z,1.33
2022-12-24T00:32:25.861Z,1.90
2022-12-24T00:34:52.491Z,1.33
2022-12-24T00:37:19.802Z,1.67
2022-12-24T00:39:46.513Z,1.60
2022-12-24T00:42:13.169Z,1.70
2022-12-24T00:44:39.743Z,1.80
2022-12-24T00:47:11.796Z,1.50
2022-12-24T00:49:38.858Z,1.80
2022-12-24T00:52:05.762Z,1.37
2022-12-24T00:54:32.365Z,1.77
2022-12-24T00:57:01.535Z,1.77
2022-12-24T00:59:28.165Z,1.80
2022-12-24T01:01:54.864Z,1.60
2022-12-24T01:04:40.058Z,2.17
2022-12-24T01:07:06.858Z,1.70
2022-12-24T01:09:33.519Z,2.17
2022-12-24T01:12:00.121Z,1.60
2022-12-24T01:14:26.741Z,1.70
2022-12-24T01:16:53.443Z,1.67
2022-12-24T01:19:20.089Z,1.97
2022-12-24T01:21:46.797Z,1.60
2022-12-24T01:24:16.966Z,2.23
2022-12-24T01:26:43.691Z,1.60
2022-12-24T01:29:10.426Z,2.00
2022-12-24T01:31:37.223Z,1.70
2022-12-24T01:34:03.967Z,1.83
2022-12-24T01:36:30.664Z,1.90
2022-12-24T01:38:57.404Z,1.87
2022-12-24T01:41:43.331Z,1.43
2022-12-24T01:44:33.432Z,1.60
2022-12-24T01:47:13.949Z,1.83
2022-12-24T01:49:47.603Z,2.47
2022-12-24T01:52:24.467Z,2.00
2022-12-24T01:54:58.381Z,2.03
2022-12-24T01:57:33.106Z,2.13
2022-12-24T02:00:05.465Z,1.63
2022-12-24T02:02:33.602Z,1.80
2022-12-24T02:05:38.038Z,1.70
2022-12-24T02:08:06.035Z,2.87
2022-12-24T02:10:32.696Z,2.27
2022-12-24T02:13:02.088Z,2.13
2022-12-24T02:15:42.605Z,2.20
2022-12-24T02:18:24.240Z,1.80
2022-12-24T02:21:11.670Z,2.33
2022-12-24T02:24:02.237Z,2.00
2022-12-24T02:26:53.645Z,1.90
2022-12-24T02:29:44.969Z,2.00
2022-12-24T02:32:27.065Z,1.93
2022-12-24T02:34:53.601Z,2.17
2022-12-24T02:37:43.446Z,1.80
2022-12-24T02:40:29.528Z,2.60
2022-12-24T02:43:01.832Z,1.67
2022-12-24T02:45:33.435Z,1.70
2022-12-24T02:48:00.995Z,2.20
2022-12-24T02:50:28.025Z,1.80
2022-12-24T02:52:54.629Z,1.93
2022-12-24T02:55:52.973Z,2.47
2022-12-24T02:58:41.463Z,2.10
2022-12-24T03:01:22.247Z,2.17
2022-12-24T03:04:15.856Z,1.97
2022-12-24T03:07:06.731Z,2.20
2022-12-24T03:09:49.248Z,2.10
2022-12-24T03:12:21.168Z,2.47
2022-12-24T03:14:49.561Z,2.10
2022-12-24T03:17:18.873Z,1.87
2022-12-24T03:19:46.905Z,2.03
2022-12-24T03:22:14.471Z,2.07
2022-12-24T03:24:41.106Z,1.83
2022-12-24T03:27:09.459Z,2.00
2022-12-24T03:29:36.122Z,2.37
2022-12-24T03:32:04.149Z,2.13
2022-12-24T03:34:31.109Z,1.70
2022-12-24T03:36:57.795Z,2.17
2022-12-24T03:39:24.631Z,1.90
2022-12-24T03:41:51.289Z,1.83
2022-12-24T03:44:17.947Z,2.27
2022-12-24T03:46:44.553Z,2.00
2022-12-24T03:49:11.251Z,1.67
2022-12-24T03:51:37.858Z,1.77
2022-12-24T03:54:04.498Z,2.23
2022-12-24T03:56:31.098Z,2.03
2022-12-24T03:58:57.764Z,2.20
2022-12-24T04:01:24.484Z,1.70
2022-12-24T04:03:51.239Z,1.60
2022-12-24T04:06:18.170Z,1.67
2022-12-24T04:08:45.106Z,1.87
2022-12-24T04:11:14.483Z,1.50
2022-12-24T04:13:41.241Z,1.70
2022-12-24T04:16:10.867Z,2.00
2022-12-24T04:18:38.171Z,1.67
2022-12-24T04:21:06.175Z,1.70
2022-12-24T04:23:34.894Z,1.57
2022-12-24T04:26:03.456Z,2.10
2022-12-24T04:28:30.968Z,1.63
2022-12-24T04:31:02.680Z,2.30
2022-12-24T04:33:29.819Z,2.13
2022-12-24T04:36:00.948Z,1.63
2022-12-24T04:38:28.310Z,1.90
2022-12-24T04:41:03.327Z,1.83
2022-12-24T04:43:30.069Z,2.63
2022-12-24T04:45:57.284Z,1.80
2022-12-24T04:48:23.956Z,2.30
2022-12-24T04:50:50.578Z,1.90
2022-12-24T04:53:17.264Z,1.77
2022-12-24T04:55:47.826Z,1.87
2022-12-24T04:58:14.852Z,1.30
2022-12-24T05:00:41.738Z,1.40
2022-12-24T05:03:08.439Z,1.93
2022-12-24T05:05:35.184Z,1.70
2022-12-24T05:08:01.865Z,2.60
2022-12-24T05:10:28.659Z,1.77
2022-12-24T05:12:55.318Z,2.17
2022-12-24T05:15:22.033Z,1.63
2022-12-24T05:17:48.772Z,1.90
2022-12-24T05:20:16.014Z,2.00
2022-12-24T05:23:01.461Z,1.80
2022-12-24T05:25:52.479Z,1.50
2022-12-24T05:28:19.316Z,2.03
2022-12-24T05:30:45.982Z,1.90
2022-12-24T05:33:12.678Z,1.63
2022-12-24T05:35:39.304Z,1.77
2022-12-24T05:38:05.991Z,1.80
2022-12-24T05:40:32.792Z,2.23
2022-12-24T05:42:59.416Z,1.90
2022-12-24T05:45:25.984Z,1.67
2022-12-24T05:47:52.619Z,2.53
2022-12-24T05:50:19.233Z,2.07
2022-12-24T05:52:45.893Z,2.07
2022-12-24T05:55:12.475Z,1.77
2022-12-24T05:57:40.683Z,1.77
2022-12-24T06:00:08.064Z,1.90
2022-12-24T06:02:34.749Z,2.03
2022-12-24T06:05:01.556Z,2.17
2022-12-24T06:07:28.217Z,1.77
2022-12-24T06:09:54.812Z,2.10
2022-12-24T06:12:21.663Z,1.90
2022-12-24T06:14:48.282Z,1.87
2022-12-24T06:17:15.118Z,1.93
2022-12-24T06:19:41.726Z,2.70
2022-12-24T06:22:08.330Z,2.40
2022-12-24T06:24:35.044Z,2.13
2022-12-24T06:27:01.623Z,1.70
2022-12-24T06:29:28.251Z,2.37
2022-12-24T06:31:54.910Z,1.97
2022-12-24T06:34:21.678Z,2.90
2022-12-24T06:36:48.268Z,2.13
2022-12-24T06:39:14.885Z,2.17
2022-12-24T06:41:41.530Z,1.73
2022-12-24T06:44:09.104Z,2.20
2022-12-24T06:46:35.843Z,2.07
2022-12-24T06:49:02.568Z,4.63
2022-12-24T06:51:29.216Z,2.57
2022-12-24T06:53:55.925Z,2.83
2022-12-24T06:56:22.581Z,2.33
2022-12-24T06:58:49.473Z,2.93
2022-12-24T07:01:19.246Z,2.90
2022-12-24T07:03:46.463Z,2.43
2022-12-24T07:06:24.622Z,2.40
2022-12-24T07:08:51.278Z,2.37
2022-12-24T07:11:18.864Z,2.73
2022-12-24T07:13:47.125Z,2.47
2022-12-24T07:16:13.833Z,2.37
2022-12-24T07:18:40.654Z,2.70
2022-12-24T07:21:07.534Z,2.27
2022-12-24T07:23:35.005Z,2.50
2022-12-24T07:26:03.336Z,2.87
2022-12-24T07:28:30.459Z,2.97
2022-12-24T07:30:58.391Z,2.70
2022-12-24T07:33:26.006Z,3.50
2022-12-24T07:36:00.886Z,3.13
2022-12-24T07:38:27.862Z,3.00
2022-12-24T07:40:54.539Z,3.00
2022-12-24T07:43:21.199Z,2.60
2022-12-24T07:45:47.890Z,3.00
2022-12-24T07:48:14.725Z,2.60
2022-12-24T07:50:41.985Z,3.10
2022-12-24T07:53:08.603Z,3.20
2022-12-24T07:55:36.390Z,3.27
2022-12-24T07:58:03.127Z,3.53
2022-12-24T08:00:29.768Z,3.07
2022-12-24T08:02:56.821Z,2.57
2022-12-24T08:05:24.357Z,2.80
2022-12-24T08:07:51.085Z,3.00
2022-12-24T08:10:17.770Z,2.80
2022-12-24T08:12:45.591Z,3.33
2022-12-24T08:15:12.393Z,2.87
2022-12-24T08:17:39.174Z,2.73
2022-12-24T08:20:08.621Z,2.93
2022-12-24T08:22:35.343Z,2.93
2022-12-24T08:25:01.963Z,2.63
2022-12-24T08:27:28.607Z,2.70
2022-12-24T08:29:55.334Z,2.67
2022-12-24T08:32:22.030Z,3.00
2022-12-24T08:34:48.659Z,3.07
2022-12-24T08:37:15.282Z,3.23
2022-12-24T08:39:41.910Z,3.67
2022-12-24T08:42:08.650Z,3.30
2022-12-24T08:44:35.296Z,3.60
2022-12-24T08:47:01.912Z,3.40
2022-12-24T08:49:28.517Z,3.03
2022-12-24T08:51:55.200Z,3.17
2022-12-24T08:54:23.547Z,2.80
2022-12-24T08:56:50.211Z,3.53
2022-12-24T08:59:17.158Z,3.60
2022-12-24T09:01:43.927Z,4.00
2022-12-24T09:04:10.686Z,3.13
2022-12-24T09:06:37.369Z,3.60
2022-12-24T09:09:05.447Z,3.13
2022-12-24T09:11:34.032Z,2.93
2022-12-24T09:14:00.822Z,3.40
2022-12-24T09:16:27.813Z,3.50
2022-12-24T09:18:54.484Z,3.80
2022-12-24T09:21:21.124Z,3.27
2022-12-24T09:23:48.616Z,3.10
2022-12-24T09:26:20.296Z,3.40
2022-12-24T09:28:47.785Z,2.77
2022-12-24T09:31:15.009Z,3.23
2022-12-24T09:33:43.646Z,3.17
2022-12-24T09:36:10.493Z,3.10
2022-12-24T09:38:38.142Z,3.27
2022-12-24T09:41:23.210Z,2.90
2022-12-24T09:43:56.362Z,2.90
2022-12-24T09:46:37.480Z,3.13
2022-12-24T09:49:14.692Z,2.97
2022-12-24T09:51:47.339Z,3.07
2022-12-24T09:54:26.313Z,3.07
2022-12-24T09:56:57.271Z,3.20
2022-12-24T09:59:28.381Z,3.03
2022-12-24T10:01:55.452Z,3.60
2022-12-24T10:04:26.855Z,3.10
2022-12-24T10:07:22.541Z,3.40
2022-12-24T10:10:34.985Z,2.47
2022-12-24T10:13:06.675Z,2.40
2022-12-24T10:15:43.480Z,3.30
2022-12-24T10:18:49.082Z,3.03
2022-12-24T10:21:48.621Z,3.00
2022-12-24T10:24:22.422Z,4.27
2022-12-24T10:26:58.126Z,3.13
2022-12-24T10:29:30.911Z,3.20
2022-12-24T10:32:05.713Z,2.70
2022-12-24T10:34:40.328Z,3.03
2022-12-24T10:37:07.097Z,3.47
2022-12-24T10:39:33.740Z,2.93
2022-12-24T10:42:01.738Z,3.20
2022-12-24T10:44:31.937Z,2.93
2022-12-24T10:46:59.711Z,3.30
2022-12-24T10:49:36.224Z,2.90
2022-12-24T10:52:15.341Z,2.50
2022-12-24T10:55:03.799Z,3.00
2022-12-24T10:57:30.493Z,2.93
2022-12-24T10:59:57.732Z,3.23
2022-12-24T11:02:40.169Z,3.10
2022-12-24T11:05:28.911Z,3.33
2022-12-24T11:08:13.623Z,2.87
2022-12-24T11:10:53.814Z,3.80
2022-12-24T11:13:39.633Z,3.30
2022-12-24T11:16:29.776Z,2.97
2022-12-24T11:19:00.757Z,3.10
2022-12-24T11:21:39.216Z,2.03
2022-12-24T11:24:12.539Z,3.40
2022-12-24T11:26:43.930Z,3.00
2022-12-24T11:29:19.990Z,3.07
2022-12-24T11:31:47.908Z,3.33
2022-12-24T11:34:25.747Z,3.13
2022-12-24T11:36:54.627Z,3.30
2022-12-24T11:39:23.958Z,3.10
2022-12-24T11:41:51.394Z,2.20
2022-12-24T11:44:28.095Z,2.80
2022-12-24T11:46:59.080Z,2.80
2022-12-24T11:49:30.906Z,2.53
2022-12-24T11:52:09.834Z,2.40
2022-12-24T11:54:59.764Z,3.20
2022-12-24T11:57:32.388Z,2.83
2022-12-24T11:59:59.118Z,2.60
2022-12-24T12:02:36.591Z,2.60
2022-12-24T12:05:13.154Z,3.07
2022-12-24T12:07:40.011Z,3.50
2022-12-24T12:10:23.010Z,3.27
2022-12-24T12:13:19.092Z,3.13
2022-12-24T12:15:57.700Z,3.00
2022-12-24T12:18:39.965Z,3.37
2022-12-24T12:21:14.663Z,3.53
2022-12-24T12:23:58.731Z,3.17
2022-12-24T12:26:28.675Z,2.90
2022-12-24T12:28:59.821Z,2.27
2022-12-24T12:31:47.400Z,3.57
2022-12-24T12:34:23.576Z,3.13
2022-12-24T12:36:58.833Z,2.90
2022-12-24T12:39:25.513Z,3.30
2022-12-24T12:42:29.205Z,2.97
2022-12-24T12:45:31.896Z,3.03
2022-12-24T12:48:16.162Z,3.00
2022-12-24T12:50:54.319Z,3.00
2022-12-24T12:53:41.909Z,3.23
2022-12-24T12:56:31.084Z,2.70
2022-12-24T12:59:36.569Z,3.50
2022-12-24T13:02:25.120Z,3.03
2022-12-24T13:05:06.465Z,3.00
2022-12-24T13:08:07.219Z,3.40
2022-12-24T13:10:53.890Z,3.30
2022-12-24T13:13:45.062Z,3.73
2022-12-24T13:16:38.632Z,2.33
2022-12-24T13:19:38.480Z,3.27
2022-12-24T13:22:05.696Z,3.13
2022-12-24T13:24:33.658Z,3.37
2022-12-24T13:27:16.980Z,2.60
2022-12-24T13:29:59.089Z,3.00
2022-12-24T13:32:28.460Z,2.83
2022-12-24T13:34:59.398Z,3.00
2022-12-24T13:37:33.271Z,2.30
2022-12-24T13:40:15.984Z,2.33
2022-12-24T13:43:07.379Z,3.27
2022-12-24T13:45:34.106Z,2.80
2022-12-24T13:48:06.915Z,2.57
2022-12-24T13:50:43.220Z,2.60
2022-12-24T13:53:40.828Z,2.83
2022-12-24T13:56:25.077Z,2.43
2022-12-24T13:59:09.928Z,2.90
2022-12-24T14:01:41.745Z,2.83
2022-12-24T14:04:18.463Z,2.57
2022-12-24T14:06:51.415Z,3.07
2022-12-24T14:09:23.065Z,3.30
2022-12-24T14:11:58.829Z,2.77
2022-12-24T14:14:31.448Z,3.17
2022-12-24T14:17:05.887Z,2.30
2022-12-24T14:19:42.055Z,3.10
2022-12-24T14:22:34.032Z,2.80
2022-12-24T14:25:07.175Z,3.10
2022-12-24T14:27:42.979Z,2.77
2022-12-24T14:30:22.820Z,2.93
2022-12-24T14:32:50.556Z,3.70
2022-12-24T14:35:24.270Z,2.60
2022-12-24T14:38:00.374Z,3.37
2022-12-24T14:40:29.851Z,3.40
2022-12-24T14:43:24.695Z,2.80
2022-12-24T14:46:11.198Z,3.57
2022-12-24T14:48:47.221Z,2.33
2022-12-24T14:51:40.993Z,3.00
2022-12-24T14:54:32.265Z,3.00
2022-12-24T14:57:12.556Z,2.53
2022-12-24T14:59:54.549Z,2.67
2022-12-24T15:02:45.769Z,3.17
2022-12-24T15:05:17.092Z,2.77
2022-12-24T15:08:03.124Z,2.90
2022-12-24T15:10:41.836Z,2.63
2022-12-24T15:13:20.577Z,4.03
2022-12-24T15:15:52.561Z,3.70
2022-12-24T15:18:25.200Z,2.80
2022-12-24T15:20:57.281Z,3.57
2022-12-24T15:23:35.157Z,3.50
2022-12-24T15:26:28.815Z,2.87
2022-12-24T15:29:03.298Z,2.87
2022-12-24T15:31:31.230Z,2.83
2022-12-24T15:34:01.847Z,3.80
2022-12-24T15:36:35.122Z,3.80
2022-12-24T15:39:08.355Z,3.30
2022-12-24T15:42:02.417Z,3.77
2022-12-24T15:44:36.838Z,4.20
2022-12-24T15:47:07.466Z,3.80
2022-12-24T15:49:35.325Z,3.13
2022-12-24T15:52:14.509Z,4.03
2022-12-24T15:54:48.483Z,4.00
2022-12-24T15:57:31.892Z,3.37
2022-12-24T16:00:00.788Z,4.17
2022-12-24T16:02:35.971Z,4.27
2022-12-24T16:05:38.966Z,4.00
2022-12-24T16:08:14.348Z,3.80
2022-12-24T16:11:03.625Z,4.17
2022-12-24T16:13:32.667Z,4.00
2022-12-24T16:16:11.782Z,4.17
2022-12-24T16:18:58.431Z,4.47
2022-12-24T16:21:30.785Z,4.00
2022-12-24T16:24:20.147Z,3.87
2022-12-24T16:26:48.018Z,4.40
2022-12-24T16:29:15.798Z,4.80
2022-12-24T16:31:54.289Z,5.30
2022-12-24T16:34:27.046Z,5.13
2022-12-24T16:36:54.107Z,5.30
2022-12-24T16:39:30.435Z,4.93
2022-12-24T16:42:20.966Z,5.63
2022-12-24T16:44:47.864Z,4.63
2022-12-24T16:47:21.925Z,4.70
2022-12-24T16:49:48.568Z,4.57
2022-12-24T16:52:23.430Z,4.50
2022-12-24T16:54:50.585Z,5.03
2022-12-24T16:57:17.848Z,4.60
2022-12-24T16:59:45.954Z,5.07
2022-12-24T17:02:18.547Z,4.47
2022-12-24T17:04:46.098Z,4.70
2022-12-24T17:07:15.189Z,4.80
2022-12-24T17:09:42.672Z,4.10
2022-12-24T17:12:12.802Z,5.73
2022-12-24T17:14:40.308Z,5.10
2022-12-24T17:17:07.016Z,5.67
2022-12-24T17:19:33.716Z,5.60
2022-12-24T17:22:00.389Z,6.13
2022-12-24T17:24:27.052Z,6.73
2022-12-24T17:26:53.733Z,6.37
2022-12-24T17:29:20.369Z,5.43
2022-12-24T17:31:47.031Z,5.53
2022-12-24T17:34:13.650Z,5.53
2022-12-24T17:36:40.510Z,5.60
2022-12-24T17:39:07.248Z,5.73
2022-12-24T17:41:33.876Z,5.57
2022-12-24T17:44:00.587Z,5.90
2022-12-24T17:46:27.315Z,5.73
2022-12-24T17:48:55.635Z,5.70
2022-12-24T17:51:23.517Z,5.67
2022-12-24T17:53:50.416Z,5.20
2022-12-24T17:56:18.048Z,5.83
2022-12-24T17:58:46.159Z,4.83
2022-12-24T18:01:19.948Z,5.60
2022-12-24T18:03:48.567Z,4.77
2022-12-24T18:06:15.724Z,5.33
2022-12-24T18:08:44.153Z,5.03
2022-12-24T18:11:19.490Z,5.10
2022-12-24T18:13:46.875Z,5.63
2022-12-24T18:16:19.236Z,5.47
2022-12-24T18:18:47.086Z,5.27
2022-12-24T18:21:14.763Z,4.87
2022-12-24T18:23:43.464Z,5.17
2022-12-24T18:26:11.259Z,5.93
2022-12-24T18:28:38.243Z,5.27
2022-12-24T18:31:07.599Z,5.70
2022-12-24T18:33:35.614Z,6.37
2022-12-24T18:36:02.252Z,6.37
2022-12-24T18:38:28.996Z,6.60
2022-12-24T18:40:55.627Z,5.73
2022-12-24T18:43:22.306Z,5.90
2022-12-24T18:45:48.994Z,5.67
2022-12-24T18:48:15.749Z,5.43
2022-12-24T18:50:42.358Z,5.33
2022-12-24T18:53:09.027Z,6.53
2022-12-24T18:55:37.062Z,5.67
2022-12-24T18:58:04.111Z,6.43
2022-12-24T19:00:30.853Z,5.53
2022-12-24T19:02:57.555Z,4.80
2022-12-24T19:05:24.314Z,5.13
2022-12-24T19:07:50.982Z,5.03
2022-12-24T19:10:17.688Z,5.30
2022-12-24T19:12:44.395Z,4.73
2022-12-24T19:15:11.178Z,4.63
2022-12-24T19:17:37.814Z,4.63
2022-12-24T19:20:04.902Z,4.63
2022-12-24T19:22:31.553Z,5.07
2022-12-24T19:24:58.187Z,4.50
2022-12-24T19:27:24.769Z,5.07
2022-12-24T19:29:51.457Z,4.50
2022-12-24T19:32:18.383Z,5.03
2022-12-24T19:34:45.031Z,5.73
2022-12-24T19:37:11.724Z,4.93
2022-12-24T19:39:38.384Z,4.80
2022-12-24T19:42:05.847Z,5.73
2022-12-24T19:44:32.491Z,4.97
2022-12-24T19:46:59.170Z,4.87
2022-12-24T19:49:25.796Z,4.40
2022-12-24T19:51:54.624Z,4.47
2022-12-24T19:54:21.683Z,4.77
2022-12-24T19:56:48.334Z,4.60
2022-12-24T19:59:15.018Z,5.40
2022-12-24T20:01:41.780Z,4.47
2022-12-24T20:04:08.966Z,4.53
2022-12-24T20:06:35.724Z,4.83
2022-12-24T20:09:06.292Z,4.87
2022-12-24T20:11:33.884Z,4.43
2022-12-24T20:14:02.640Z,5.00
2022-12-24T20:16:30.143Z,4.70
2022-12-24T20:19:03.383Z,4.37
2022-12-24T20:21:30.793Z,4.20
2022-12-24T20:23:57.507Z,4.67
2022-12-24T20:26:27.817Z,5.40
2022-12-24T20:28:54.603Z,5.50
2022-12-24T20:31:26.541Z,5.13
2022-12-24T20:33:53.956Z,5.47
2022-12-24T20:36:22.589Z,4.93
2022-12-24T20:38:49.982Z,6.23
2022-12-24T20:41:19.613Z,5.93
2022-12-24T20:43:48.720Z,6.60
2022-12-24T20:46:16.862Z,6.03
2022-12-24T20:48:43.605Z,8.43
2022-12-24T20:51:20.958Z,6.53
2022-12-24T20:53:50.775Z,6.07
2022-12-24T20:56:18.221Z,5.80
2022-12-24T20:58:45.559Z,6.23
2022-12-24T21:01:31.839Z,5.77
2022-12-24T21:04:04.152Z,6.27
2022-12-24T21:06:31.638Z,6.30
2022-12-24T21:08:58.382Z,6.60
2022-12-24T21:11:48.011Z,6.30
2022-12-24T21:14:19.849Z,6.17
2022-12-24T21:16:46.790Z,6.17
2022-12-24T21:19:20.711Z,5.90
2022-12-24T21:21:47.866Z,6.13
2022-12-24T21:24:15.315Z,5.13
2022-12-24T21:26:41.953Z,5.73
2022-12-24T21:29:09.412Z,5.57
2022-12-24T21:31:37.463Z,5.93
2022-12-24T21:34:04.353Z,5.80
2022-12-24T21:36:31.033Z,5.73
2022-12-24T21:38:57.800Z,6.23
2022-12-24T21:41:25.770Z,5.93
2022-12-24T21:43:52.677Z,6.30
2022-12-24T21:46:23.130Z,6.30
2022-12-24T21:49:09.833Z,5.83
2022-12-24T21:51:36.836Z,6.40
2022-12-24T21:54:22.343Z,6.37
2022-12-24T21:57:08.415Z,5.93
2022-12-24T21:59:35.042Z,5.33
2022-12-24T22:02:01.856Z,6.30
2022-12-24T22:04:30.037Z,5.90
2022-12-24T22:07:15.155Z,6.37
2022-12-24T22:10:00.558Z,6.33
2022-12-24T22:12:31.094Z,5.97
2022-12-24T22:14:58.240Z,5.80
2022-12-24T22:17:25.965Z,5.83
2022-12-24T22:19:56.291Z,5.80
2022-12-24T22:22:23.484Z,5.40
2022-12-24T22:24:50.278Z,5.30
2022-12-24T22:27:16.924Z,5.30
2022-12-24T22:29:43.545Z,5.03
2022-12-24T22:32:10.189Z,5.17
2022-12-24T22:34:36.848Z,5.03
2022-12-24T22:37:03.645Z,4.77
2022-12-24T22:39:30.277Z,5.67
2022-12-24T22:41:57.956Z,5.90
2022-12-24T22:44:24.963Z,4.53
2022-12-24T22:46:51.612Z,5.03
2022-12-24T22:49:18.270Z,5.70
2022-12-24T22:51:44.896Z,4.67
2022-12-24T22:54:11.825Z,5.60
2022-12-24T22:56:41.251Z,5.50
2022-12-24T22:59:09.350Z,5.57
2022-12-24T23:01:38.779Z,5.27
2022-12-24T23:04:07.304Z,5.73
2022-12-24T23:06:34.502Z,5.37
2022-12-24T23:09:01.613Z,5.40
2022-12-24T23:11:28.334Z,5.27
2022-12-24T23:14:13.628Z,5.17
2022-12-24T23:16:40.248Z,5.47
2022-12-24T23:19:07.114Z,4.70
2022-12-24T23:21:34.473Z,5.27
2022-12-24T23:24:01.853Z,4.87
2022-12-24T23:26:29.464Z,4.90
2022-12-24T23:28:57.055Z,4.37
2022-12-24T23:31:24.308Z,4.70
2022-12-24T23:33:51.278Z,4.53
2022-12-24T23:36:18.421Z,4.20
2022-12-24T23:38:45.037Z,4.27
2022-12-24T23:41:12.250Z,4.40
2022-12-24T23:43:39.187Z,4.47
2022-12-24T23:46:06.112Z,5.60
2022-12-24T23:48:32.777Z,4.63
2022-12-24T23:51:06.837Z,4.57
2022-12-24T23:53:33.689Z,5.27
2022-12-24T23:56:00.549Z,4.13
2022-12-24T23:58:27.456Z,4.73
